createdAt,value
2022-09-21T00:01:09.326Z,1.27
2022-09-21T00:03:37.112Z,1.45
2022-09-21T00:06:09.411Z,1.23
2022-09-21T00:08:36.448Z,1.30
2022-09-21T00:11:05.559Z,1.02
2022-09-21T00:13:35.081Z,1.40
2022-09-21T00:16:02.439Z,0.90
2022-09-21T00:18:29.709Z,1.30
2022-09-21T00:20:56.956Z,1.10
2022-09-21T00:23:24.146Z,0.80
2022-09-21T00:25:50.960Z,1.33
2022-09-21T00:28:18.152Z,1.20
2022-09-21T00:30:45.881Z,1.20
2022-09-21T00:33:12.638Z,1.40
2022-09-21T00:35:39.476Z,1.40
2022-09-21T00:38:06.647Z,1.27
2022-09-21T00:40:33.871Z,1.67
2022-09-21T00:43:15.388Z,1.40
2022-09-21T00:45:44.587Z,1.27
2022-09-21T00:48:11.867Z,1.20
2022-09-21T00:50:46.587Z,1.63
2022-09-21T00:53:14.258Z,1.40
2022-09-21T00:55:46.322Z,1.25
2022-09-21T00:58:24.183Z,1.27
2022-09-21T01:00:52.374Z,1.50
2022-09-21T01:03:19.615Z,1.10
2022-09-21T01:05:46.417Z,1.38
2022-09-21T01:08:14.368Z,1.20
2022-09-21T01:10:55.500Z,1.10
2022-09-21T01:13:38.030Z,1.20
2022-09-21T01:16:23.301Z,1.23
2022-09-21T01:19:05.546Z,1.33
2022-09-21T01:21:39.498Z,0.82
2022-09-21T01:24:21.339Z,1.30
2022-09-21T01:26:57.433Z,1.13
2022-09-21T01:31:53.980Z,1.38
2022-09-21T01:34:35.534Z,1.17
2022-09-21T01:37:12.615Z,1.15
2022-09-21T01:39:42.166Z,1.25
2022-09-21T01:42:10.634Z,1.20
2022-09-21T01:44:40.531Z,0.82
2022-09-21T01:47:12.649Z,1.25
2022-09-21T01:49:42.235Z,1.23
2022-09-21T01:52:21.281Z,1.10
2022-09-21T01:54:54.640Z,1.10
2022-09-21T01:57:45.716Z,1.27
2022-09-21T02:00:13.227Z,1.70
2022-09-21T02:02:40.407Z,1.30
2022-09-21T02:05:07.938Z,1.77
2022-09-21T02:07:35.686Z,1.60
2022-09-21T02:10:03.190Z,1.92
2022-09-21T02:12:33.044Z,1.20
2022-09-21T02:15:00.686Z,1.58
2022-09-21T02:17:46.214Z,1.25
2022-09-21T02:20:20.238Z,1.42
2022-09-21T02:22:50.612Z,1.65
2022-09-21T02:25:28.079Z,1.60
2022-09-21T02:28:01.587Z,1.70
2022-09-21T02:30:28.758Z,1.52
2022-09-21T02:33:11.446Z,1.90
2022-09-21T02:35:38.826Z,1.23
2022-09-21T02:38:18.071Z,1.67
2022-09-21T02:40:52.019Z,1.85
2022-09-21T02:43:22.465Z,1.80
2022-09-21T02:45:56.487Z,1.48
2022-09-21T02:48:33.078Z,2.00
2022-09-21T02:51:06.146Z,1.70
2022-09-21T02:53:37.006Z,1.50
2022-09-21T02:56:07.259Z,1.75
2022-09-21T02:58:39.026Z,1.70
2022-09-21T03:01:07.531Z,1.63
2022-09-21T03:03:35.674Z,1.63
2022-09-21T03:06:03.176Z,1.80
2022-09-21T03:08:30.492Z,1.73
2022-09-21T03:10:57.822Z,1.52
2022-09-21T03:13:25.296Z,1.90
2022-09-21T03:15:59.234Z,1.48
2022-09-21T03:18:26.531Z,1.63
2022-09-21T03:20:53.724Z,1.58
2022-09-21T03:23:20.975Z,1.60
2022-09-21T03:25:48.406Z,1.80
2022-09-21T03:28:16.605Z,1.48
2022-09-21T03:30:43.979Z,1.58
2022-09-21T03:33:13.106Z,1.35
2022-09-21T03:35:40.783Z,1.55
2022-09-21T03:38:08.219Z,1.67
2022-09-21T03:40:35.732Z,1.60
2022-09-21T03:43:03.355Z,1.67
2022-09-21T03:45:30.615Z,1.20
2022-09-21T03:47:58.500Z,1.50
2022-09-21T03:50:26.256Z,1.60
2022-09-21T03:52:53.190Z,1.77
2022-09-21T03:55:20.564Z,2.22
2022-09-21T03:57:47.946Z,1.65
2022-09-21T04:00:15.153Z,1.88
2022-09-21T04:02:42.600Z,1.50
2022-09-21T04:05:11.688Z,2.35
2022-09-21T04:07:39.466Z,2.00
2022-09-21T04:10:08.129Z,2.03
2022-09-21T04:12:36.392Z,2.03
2022-09-21T04:15:07.443Z,1.85
2022-09-21T04:17:35.159Z,1.60
2022-09-21T04:20:02.472Z,1.95
2022-09-21T04:22:29.671Z,1.90
2022-09-21T04:24:56.876Z,1.88
2022-09-21T04:27:24.876Z,1.63
2022-09-21T04:29:52.043Z,2.67
2022-09-21T04:32:19.571Z,2.15
2022-09-21T04:34:47.170Z,1.85
2022-09-21T04:37:14.383Z,2.38
2022-09-21T04:39:41.950Z,1.65
2022-09-21T04:42:10.568Z,2.30
2022-09-21T04:44:37.768Z,2.25
2022-09-21T04:47:05.027Z,2.30
2022-09-21T04:49:32.218Z,2.13
2022-09-21T04:51:59.544Z,2.45
2022-09-21T04:54:27.070Z,2.45
2022-09-21T04:56:54.268Z,2.25
2022-09-21T04:59:21.132Z,2.00
2022-09-21T05:01:48.334Z,2.40
2022-09-21T05:04:15.720Z,2.03
2022-09-21T05:06:42.705Z,2.58
2022-09-21T05:09:28.341Z,2.60
2022-09-21T05:11:55.227Z,2.38
2022-09-21T05:14:22.455Z,2.10
2022-09-21T05:16:49.752Z,2.50
2022-09-21T05:19:17.747Z,2.50
2022-09-21T05:21:44.535Z,3.10
2022-09-21T05:24:11.779Z,2.20
2022-09-21T05:26:39.014Z,2.22
2022-09-21T05:29:06.524Z,2.58
2022-09-21T05:31:43.665Z,2.35
2022-09-21T05:34:18.239Z,2.58
2022-09-21T05:36:50.210Z,2.05
2022-09-21T05:39:17.576Z,2.35
2022-09-21T05:41:44.959Z,2.67
2022-09-21T05:44:17.121Z,2.25
2022-09-21T05:46:55.456Z,3.00
2022-09-21T05:49:29.114Z,2.58
2022-09-21T05:52:01.602Z,2.85
2022-09-21T05:54:37.750Z,2.90
2022-09-21T05:59:32.013Z,2.40
2022-09-21T06:02:17.986Z,2.65
2022-09-21T06:04:45.485Z,2.67
2022-09-21T06:07:13.368Z,2.80
2022-09-21T06:09:43.159Z,2.67
2022-09-21T06:12:11.402Z,2.55
2022-09-21T06:14:39.037Z,2.53
2022-09-21T06:17:05.914Z,2.53
2022-09-21T06:19:33.148Z,2.83
2022-09-21T06:22:00.425Z,2.10
2022-09-21T06:24:27.795Z,2.33
2022-09-21T06:26:54.968Z,2.45
2022-09-21T06:29:23.580Z,2.55
2022-09-21T06:31:51.519Z,2.60
2022-09-21T06:34:19.131Z,2.70
2022-09-21T06:36:46.318Z,2.50
2022-09-21T06:39:13.744Z,2.47
2022-09-21T06:41:41.240Z,2.13
2022-09-21T06:44:10.671Z,2.58
2022-09-21T06:46:37.895Z,2.20
2022-09-21T06:49:05.135Z,2.25
2022-09-21T06:51:32.044Z,2.45
2022-09-21T06:53:59.504Z,2.17
2022-09-21T06:56:26.823Z,2.60
2022-09-21T06:58:54.724Z,2.45
2022-09-21T07:01:22.413Z,2.20
2022-09-21T07:03:51.185Z,2.20
2022-09-21T07:06:19.043Z,2.33
2022-09-21T07:11:33.012Z,2.08
2022-09-21T07:14:00.291Z,2.35
2022-09-21T07:16:28.051Z,2.15
2022-09-21T07:18:55.018Z,2.22
2022-09-21T07:21:22.230Z,2.25
2022-09-21T07:23:49.463Z,2.20
2022-09-21T07:26:16.803Z,1.70
2022-09-21T07:28:43.898Z,2.10
2022-09-21T07:31:15.576Z,1.83
2022-09-21T07:33:43.846Z,2.30
2022-09-21T07:36:13.225Z,1.50
2022-09-21T07:38:44.079Z,1.50
2022-09-21T07:41:12.944Z,1.63
2022-09-21T07:43:40.296Z,1.38
2022-09-21T07:46:11.724Z,1.40
2022-09-21T07:48:39.163Z,1.20
2022-09-21T07:51:09.089Z,1.50
2022-09-21T07:53:37.996Z,1.33
2022-09-21T07:56:09.670Z,1.38
2022-09-21T07:58:56.241Z,1.52
2022-09-21T08:03:51.204Z,1.27
2022-09-21T08:06:19.188Z,1.52
2022-09-21T08:08:47.995Z,1.30
2022-09-21T08:11:19.756Z,1.45
2022-09-21T08:13:47.284Z,1.17
2022-09-21T08:16:14.861Z,1.35
2022-09-21T08:18:42.159Z,1.13
2022-09-21T08:21:12.144Z,1.17
2022-09-21T08:23:43.135Z,1.20
2022-09-21T08:26:18.144Z,1.50
2022-09-21T08:28:48.978Z,1.27
2022-09-21T08:31:17.232Z,1.13
2022-09-21T08:33:44.094Z,1.42
2022-09-21T08:36:11.659Z,1.30
2022-09-21T08:38:39.793Z,1.05
2022-09-21T08:41:38.713Z,1.00
2022-09-21T08:44:14.602Z,1.15
2022-09-21T08:46:43.141Z,1.67
2022-09-21T08:49:19.008Z,1.30
2022-09-21T08:51:50.687Z,1.23
2022-09-21T08:54:26.815Z,1.10
2022-09-21T08:59:32.820Z,1.48
2022-09-21T09:02:20.523Z,1.20
2022-09-21T09:04:58.442Z,1.30
2022-09-21T09:07:37.231Z,1.25
2022-09-21T09:10:07.159Z,1.20
2022-09-21T09:12:52.546Z,1.20
2022-09-21T09:15:28.335Z,1.00
2022-09-21T09:18:08.546Z,1.30
2022-09-21T09:20:49.392Z,1.45
2022-09-21T09:23:22.836Z,1.35
2022-09-21T09:25:52.256Z,1.33
2022-09-21T09:28:34.684Z,1.38
2022-09-21T09:31:10.829Z,1.05
2022-09-21T09:36:14.495Z,1.40
2022-09-21T09:38:57.371Z,1.20
2022-09-21T09:41:33.647Z,1.35
2022-09-21T09:44:16.135Z,1.27
2022-09-21T09:46:45.262Z,1.38
2022-09-21T09:49:32.250Z,1.17
2022-09-21T09:51:59.682Z,1.42
2022-09-21T09:54:28.166Z,1.60
2022-09-21T09:56:55.153Z,1.52
2022-09-21T09:59:35.642Z,1.38
2022-09-21T10:02:03.139Z,1.15
2022-09-21T10:04:30.686Z,1.33
2022-09-21T10:06:58.852Z,1.23
2022-09-21T10:09:32.414Z,1.10
2022-09-21T10:12:06.812Z,1.17
2022-09-21T10:14:36.438Z,1.23
2022-09-21T10:17:08.080Z,1.20
2022-09-21T10:19:35.546Z,1.50
2022-09-21T10:22:04.819Z,1.15
2022-09-21T10:24:35.998Z,1.05
2022-09-21T10:27:16.890Z,0.88
2022-09-21T10:29:50.372Z,1.10
2022-09-21T10:32:17.560Z,0.82
2022-09-21T10:35:04.648Z,0.82
2022-09-21T10:37:41.233Z,1.05
2022-09-21T10:40:20.538Z,0.90
2022-09-21T10:42:56.024Z,1.10
2022-09-21T10:45:29.819Z,1.10
2022-09-21T10:48:24.373Z,1.00
2022-09-21T10:50:52.804Z,1.40
2022-09-21T10:53:28.765Z,0.98
2022-09-21T10:56:22.852Z,1.30
2022-09-21T10:59:19.563Z,1.17
2022-09-21T11:01:50.619Z,1.13
2022-09-21T11:04:43.080Z,0.90
2022-09-21T11:07:31.451Z,1.10
2022-09-21T11:10:26.898Z,1.05
2022-09-21T11:13:16.947Z,1.40
2022-09-21T11:15:59.315Z,1.10
2022-09-21T11:18:57.793Z,1.30
2022-09-21T11:21:33.925Z,0.93
2022-09-21T11:28:56.851Z,0.80
2022-09-21T11:31:36.094Z,0.90
2022-09-21T11:34:03.259Z,0.80
2022-09-21T11:36:57.492Z,1.10
2022-09-21T11:39:51.976Z,0.88
2022-09-21T11:42:19.129Z,0.80
2022-09-21T11:44:58.670Z,1.00
2022-09-21T11:47:37.726Z,1.20
2022-09-21T11:50:38.647Z,0.80
2022-09-21T11:53:05.948Z,0.80
2022-09-21T11:55:59.479Z,0.95
2022-09-21T11:59:17.741Z,0.70
2022-09-21T12:02:20.124Z,0.60
2022-09-21T12:05:13.016Z,0.95
2022-09-21T12:08:22.199Z,0.60
2022-09-21T12:10:50.146Z,0.68
2022-09-21T12:13:27.742Z,0.70
2022-09-21T12:16:05.430Z,0.80
2022-09-21T12:18:48.822Z,0.88
2022-09-21T12:21:41.338Z,0.70
2022-09-21T12:24:29.859Z,0.82
2022-09-21T12:27:04.176Z,0.93
2022-09-21T12:29:41.612Z,0.60
2022-09-21T12:32:21.538Z,0.82
2022-09-21T12:34:57.296Z,0.75
2022-09-21T12:37:31.934Z,0.50
2022-09-21T12:40:20.425Z,0.60
2022-09-21T12:42:52.329Z,0.70
2022-09-21T12:45:25.467Z,0.57
2022-09-21T12:48:05.881Z,0.65
2022-09-21T12:50:44.499Z,0.70
2022-09-21T12:53:20.002Z,0.45
2022-09-21T12:55:55.805Z,0.50
2022-09-21T12:58:48.687Z,0.40
2022-09-21T13:01:31.429Z,0.90
2022-09-21T13:04:11.213Z,0.50
2022-09-21T13:06:59.152Z,0.40
2022-09-21T13:09:28.183Z,0.50
2022-09-21T13:12:06.508Z,0.60
2022-09-21T13:14:36.426Z,0.60
2022-09-21T13:17:05.839Z,0.60
2022-09-21T13:19:34.751Z,0.50
2022-09-21T13:22:21.082Z,0.50
2022-09-21T13:28:01.113Z,0.45
2022-09-21T13:30:33.149Z,0.57
2022-09-21T13:33:01.660Z,0.35
2022-09-21T13:36:05.002Z,0.50
2022-09-21T13:38:41.195Z,0.40
2022-09-21T13:41:51.952Z,0.40
2022-09-21T13:44:41.594Z,0.47
2022-09-21T13:47:11.413Z,0.32
2022-09-21T13:49:45.343Z,0.30
2022-09-21T13:52:15.669Z,0.40
2022-09-21T13:54:45.473Z,0.40
2022-09-21T13:57:38.999Z,0.50
2022-09-21T14:00:07.093Z,0.40
2022-09-21T14:02:42.690Z,0.30
2022-09-21T14:05:32.017Z,0.40
2022-09-21T14:08:24.920Z,0.45
2022-09-21T14:11:15.531Z,0.20
2022-09-21T14:13:46.616Z,0.30
2022-09-21T14:16:35.104Z,0.60
2022-09-21T14:19:02.947Z,0.50
2022-09-21T14:21:30.199Z,0.30
2022-09-21T14:24:05.913Z,0.30
2022-09-21T14:26:33.947Z,0.57
2022-09-21T14:29:27.614Z,0.52
2022-09-21T14:32:01.299Z,0.45
2022-09-21T14:34:36.058Z,0.50
2022-09-21T14:37:28.167Z,0.30
2022-09-21T14:39:55.432Z,0.35
2022-09-21T14:42:28.185Z,0.20
2022-09-21T14:45:03.753Z,0.40
2022-09-21T14:48:02.729Z,0.32
2022-09-21T14:50:36.644Z,0.40
2022-09-21T14:53:18.163Z,0.40
2022-09-21T14:56:15.862Z,0.30
2022-09-21T14:59:15.713Z,0.40
2022-09-21T15:02:00.337Z,0.32
2022-09-21T15:04:54.294Z,0.30
2022-09-21T15:08:09.486Z,0.40
2022-09-21T15:11:13.033Z,0.40
2022-09-21T15:14:04.523Z,0.50
2022-09-21T15:16:43.981Z,0.45
2022-09-21T15:19:21.010Z,0.40
2022-09-21T15:21:53.908Z,0.40
2022-09-21T15:24:21.115Z,0.52
2022-09-21T15:26:50.368Z,0.30
2022-09-21T15:29:31.394Z,0.30
2022-09-21T15:31:59.767Z,0.43
2022-09-21T15:34:28.083Z,0.25
2022-09-21T15:37:06.644Z,0.30
2022-09-21T15:39:33.547Z,0.20
2022-09-21T15:42:09.576Z,0.30
2022-09-21T15:44:38.492Z,0.38
2022-09-21T15:47:12.542Z,0.40
2022-09-21T15:49:40.304Z,0.40
2022-09-21T15:52:37.910Z,0.28
2022-09-21T15:55:21.566Z,0.30
2022-09-21T15:57:58.760Z,0.40
2022-09-21T16:00:31.245Z,0.20
2022-09-21T16:03:19.322Z,0.43
2022-09-21T16:05:51.669Z,0.40
2022-09-21T16:08:36.164Z,0.35
2022-09-21T16:11:14.131Z,0.30
2022-09-21T16:14:04.288Z,0.73
2022-09-21T16:16:31.939Z,0.30
2022-09-21T16:19:01.982Z,0.40
2022-09-21T16:21:39.450Z,0.50
2022-09-21T16:24:21.215Z,0.30
2022-09-21T16:27:00.912Z,0.40
2022-09-21T16:29:38.628Z,0.30
2022-09-21T16:32:17.580Z,0.30
2022-09-21T16:34:51.887Z,0.30
2022-09-21T16:37:24.381Z,0.20
2022-09-21T16:39:52.971Z,0.30
2022-09-21T16:42:20.504Z,0.40
2022-09-21T16:44:48.012Z,0.30
2022-09-21T16:47:25.103Z,0.30
2022-09-21T16:49:56.449Z,0.30
2022-09-21T16:52:28.343Z,0.38
2022-09-21T16:54:56.613Z,0.40
2022-09-21T16:57:24.453Z,0.45
2022-09-21T16:59:51.730Z,0.40
2022-09-21T17:02:19.611Z,0.40
2022-09-21T17:04:47.978Z,0.30
2022-09-21T17:07:15.329Z,0.38
2022-09-21T17:09:46.277Z,0.45
2022-09-21T17:12:15.542Z,0.40
2022-09-21T17:14:46.711Z,0.40
2022-09-21T17:17:23.139Z,0.40
2022-09-21T17:22:18.391Z,0.30
2022-09-21T17:24:51.734Z,0.40
2022-09-21T17:27:21.483Z,0.57
2022-09-21T17:29:49.682Z,0.55
2022-09-21T17:32:23.211Z,0.80
2022-09-21T17:35:18.549Z,0.50
2022-09-21T17:37:45.967Z,0.57
2022-09-21T17:40:13.548Z,0.57
2022-09-21T17:42:43.270Z,0.40
2022-09-21T17:45:40.619Z,0.63
2022-09-21T17:48:18.059Z,0.60
2022-09-21T17:50:45.342Z,0.90
2022-09-21T17:53:31.216Z,0.85
2022-09-21T17:56:00.127Z,0.47
2022-09-21T17:58:34.533Z,0.50
2022-09-21T18:01:02.095Z,0.50
2022-09-21T18:03:31.897Z,0.70
2022-09-21T18:06:00.528Z,0.52
2022-09-21T18:08:36.108Z,0.65
2022-09-21T18:11:27.598Z,0.80
2022-09-21T18:14:30.660Z,0.90
2022-09-21T18:17:14.858Z,0.77
2022-09-21T18:19:42.594Z,22.45
2022-09-21T18:22:13.844Z,15.68
2022-09-21T18:24:41.365Z,17.13
2022-09-21T18:27:10.977Z,6.53
2022-09-21T18:29:41.326Z,3.78
2022-09-21T18:32:17.240Z,2.28
2022-09-21T18:35:15.088Z,1.73
2022-09-21T18:38:02.847Z,2.10
2022-09-21T18:40:51.480Z,1.52
2022-09-21T18:43:23.072Z,1.50
2022-09-21T18:45:55.181Z,1.50
2022-09-21T18:48:22.756Z,1.08
2022-09-21T18:51:04.656Z,1.27
2022-09-21T18:53:45.207Z,1.35
2022-09-21T18:56:13.282Z,1.20
2022-09-21T18:58:42.823Z,1.45
2022-09-21T19:01:13.556Z,1.40
2022-09-21T19:03:43.808Z,1.35
2022-09-21T19:06:29.934Z,1.30
2022-09-21T19:09:35.011Z,1.00
2022-09-21T19:12:03.645Z,1.30
2022-09-21T19:14:30.833Z,1.10
2022-09-21T19:17:17.151Z,1.05
2022-09-21T19:20:01.526Z,1.20
2022-09-21T19:22:31.678Z,1.40
2022-09-21T19:25:04.922Z,1.30
2022-09-21T19:27:36.465Z,1.45
2022-09-21T19:30:04.483Z,1.10
2022-09-21T19:32:41.297Z,1.30
2022-09-21T19:35:24.120Z,1.05
2022-09-21T19:37:52.959Z,1.38
2022-09-21T19:40:22.731Z,1.25
2022-09-21T19:42:52.956Z,1.17
2022-09-21T19:45:24.842Z,1.17
2022-09-21T19:47:57.849Z,1.20
2022-09-21T19:50:38.598Z,1.25
2022-09-21T19:53:28.650Z,1.00
2022-09-21T19:56:16.139Z,1.17
2022-09-21T19:59:02.519Z,1.20
2022-09-21T20:01:30.294Z,1.23
2022-09-21T20:03:57.559Z,1.10
2022-09-21T20:06:30.227Z,1.63
2022-09-21T20:08:57.424Z,1.30
2022-09-21T20:11:38.551Z,1.00
2022-09-21T20:14:16.208Z,1.10
2022-09-21T20:16:48.299Z,0.95
2022-09-21T20:19:18.955Z,1.08
2022-09-21T20:21:47.207Z,1.02
2022-09-21T20:24:29.525Z,1.17
2022-09-21T20:26:56.618Z,0.98
2022-09-21T20:29:23.480Z,1.38
2022-09-21T20:31:52.764Z,1.15
2022-09-21T20:34:20.752Z,1.50
2022-09-21T20:36:47.988Z,1.30
2022-09-21T20:39:15.242Z,1.50
2022-09-21T20:41:42.386Z,1.42
2022-09-21T20:44:12.553Z,1.65
2022-09-21T20:46:39.829Z,1.40
2022-09-21T20:49:08.084Z,1.60
2022-09-21T20:51:36.027Z,1.52
2022-09-21T20:54:03.905Z,1.00
2022-09-21T20:56:31.144Z,1.73
2022-09-21T20:58:59.303Z,1.50
2022-09-21T21:01:27.142Z,1.30
2022-09-21T21:04:01.691Z,1.65
2022-09-21T21:06:31.212Z,1.45
2022-09-21T21:08:58.608Z,1.38
2022-09-21T21:11:28.103Z,1.30
2022-09-21T21:13:56.150Z,1.35
2022-09-21T21:16:23.426Z,1.10
2022-09-21T21:18:50.767Z,1.42
2022-09-21T21:21:17.581Z,1.10
2022-09-21T21:24:07.377Z,1.17
2022-09-21T21:27:00.296Z,1.65
2022-09-21T21:29:22.154Z,1.13
2022-09-21T21:31:49.954Z,1.10
2022-09-21T21:34:16.747Z,1.10
2022-09-21T21:36:44.024Z,1.00
2022-09-21T21:39:11.192Z,1.30
2022-09-21T21:41:38.413Z,0.90
2022-09-21T21:44:05.572Z,1.05
2022-09-21T21:46:32.926Z,1.17
2022-09-21T21:49:00.737Z,1.00
2022-09-21T21:51:28.042Z,1.60
2022-09-21T21:53:55.263Z,1.20
2022-09-21T21:56:23.262Z,1.10
2022-09-21T21:58:53.800Z,1.20
2022-09-21T22:01:23.785Z,1.17
2022-09-21T22:03:55.655Z,1.60
2022-09-21T22:06:23.274Z,1.30
2022-09-21T22:08:51.046Z,1.42
2022-09-21T22:11:18.310Z,1.30
2022-09-21T22:13:45.711Z,1.30
2022-09-21T22:16:17.778Z,1.48
2022-09-21T22:18:46.223Z,1.20
2022-09-21T22:21:14.304Z,1.30
2022-09-21T22:23:41.481Z,1.17
2022-09-21T22:26:15.816Z,1.25
2022-09-21T22:28:46.212Z,1.20
2022-09-21T22:31:15.860Z,1.10
2022-09-21T22:33:43.456Z,1.17
2022-09-21T22:36:13.604Z,1.10
2022-09-21T22:38:43.069Z,1.58
2022-09-21T22:41:17.104Z,0.93
2022-09-21T22:43:45.138Z,0.98
2022-09-21T22:46:12.809Z,1.05
2022-09-21T22:48:40.069Z,1.08
2022-09-21T22:51:07.328Z,0.93
2022-09-21T22:53:34.764Z,0.80
2022-09-21T22:56:06.195Z,0.95
2022-09-21T22:58:34.678Z,0.93
2022-09-21T23:01:12.217Z,1.48
2022-09-21T23:03:40.920Z,1.00
2022-09-21T23:06:10.191Z,1.00
2022-09-21T23:08:37.752Z,1.25
2022-09-21T23:11:14.286Z,1.20
2022-09-21T23:13:41.875Z,1.15
2022-09-21T23:16:11.137Z,0.80
2022-09-21T23:18:39.868Z,0.90
2022-09-21T23:21:10.233Z,1.15
2022-09-21T23:23:37.030Z,1.13
2022-09-21T23:26:07.135Z,1.10
2022-09-21T23:28:35.132Z,1.00
2022-09-21T23:31:04.481Z,0.90
2022-09-21T23:33:35.821Z,1.02
2022-09-21T23:36:03.547Z,1.33
2022-09-21T23:38:30.804Z,0.73
2022-09-21T23:41:02.028Z,0.95
2022-09-21T23:43:29.131Z,1.10
2022-09-21T23:45:56.444Z,1.10
2022-09-21T23:48:23.696Z,0.80
2022-09-21T23:50:51.258Z,1.00
2022-09-21T23:53:18.056Z,1.00
2022-09-21T23:55:45.228Z,1.10
2022-09-21T23:58:12.436Z,0.80
